createdAt,value
2022-08-17T00:00:06.915Z,6.75
2022-08-17T00:02:55.687Z,5.75
2022-08-17T00:05:23.442Z,9.20
2022-08-17T00:07:51.394Z,6.25
2022-08-17T00:10:19.320Z,7.72
2022-08-17T00:12:47.062Z,5.07
2022-08-17T00:15:16.587Z,4.95
2022-08-17T00:17:47.120Z,5.30
2022-08-17T00:20:14.958Z,4.22
2022-08-17T00:22:43.066Z,6.80
2022-08-17T00:25:19.501Z,6.35
2022-08-17T00:27:47.519Z,6.47
2022-08-17T00:30:16.649Z,11.63
2022-08-17T00:33:14.210Z,7.53
2022-08-17T00:35:33.296Z,5.15
2022-08-17T00:38:00.988Z,6.53
2022-08-17T00:40:44.460Z,10.07
2022-08-17T00:43:15.158Z,4.85
2022-08-17T00:45:44.717Z,6.15
2022-08-17T00:48:29.857Z,4.43
2022-08-17T00:51:00.474Z,7.68
2022-08-17T00:53:29.757Z,6.13
2022-08-17T00:55:58.190Z,10.80
2022-08-17T00:58:33.007Z,10.23
2022-08-17T01:01:06.119Z,5.72
2022-08-17T01:03:34.246Z,5.95
2022-08-17T01:06:04.315Z,6.38
2022-08-17T01:08:32.746Z,5.10
2022-08-17T01:11:02.689Z,6.60
2022-08-17T01:13:38.166Z,9.32
2022-08-17T01:16:12.383Z,5.10
2022-08-17T01:18:40.153Z,8.27
2022-08-17T01:21:10.794Z,6.93
2022-08-17T01:23:42.356Z,7.25
2022-08-17T01:26:10.169Z,5.00
2022-08-17T01:28:54.926Z,7.00
2022-08-17T01:31:24.820Z,5.30
2022-08-17T01:33:53.215Z,4.25
2022-08-17T01:36:21.474Z,5.55
2022-08-17T01:38:50.521Z,6.07
2022-08-17T01:41:18.379Z,5.85
2022-08-17T01:43:48.644Z,6.90
2022-08-17T01:46:18.738Z,4.45
2022-08-17T01:48:47.525Z,4.10
2022-08-17T01:51:16.475Z,6.28
2022-08-17T01:53:48.345Z,6.20
2022-08-17T01:56:19.365Z,6.70
2022-08-17T01:58:47.093Z,5.10
2022-08-17T02:01:17.828Z,6.07
2022-08-17T02:03:56.182Z,5.90
2022-08-17T02:06:29.273Z,6.43
2022-08-17T02:09:02.614Z,8.13
2022-08-17T02:11:33.617Z,6.82
2022-08-17T02:14:03.153Z,4.65
2022-08-17T02:16:37.898Z,5.30
2022-08-17T02:19:07.015Z,6.10
2022-08-17T02:21:34.701Z,4.63
2022-08-17T02:24:02.725Z,6.90
2022-08-17T02:26:30.459Z,5.30
2022-08-17T02:28:59.491Z,5.65
2022-08-17T02:31:27.279Z,7.38
2022-08-17T02:34:04.152Z,7.78
2022-08-17T02:36:33.433Z,6.28
2022-08-17T02:39:01.418Z,5.72
2022-08-17T02:41:29.242Z,5.32
2022-08-17T02:43:56.943Z,5.88
2022-08-17T02:46:25.963Z,4.35
2022-08-17T02:48:53.671Z,8.77
2022-08-17T02:51:21.513Z,5.13
2022-08-17T02:53:49.248Z,6.97
2022-08-17T02:56:17.085Z,5.18
2022-08-17T02:58:46.184Z,4.80
2022-08-17T03:01:14.405Z,5.93
2022-08-17T03:03:43.501Z,4.97
2022-08-17T03:06:11.517Z,10.20
2022-08-17T03:08:39.567Z,5.45
2022-08-17T03:11:07.301Z,5.13
2022-08-17T03:13:35.840Z,5.93
2022-08-17T03:16:03.573Z,5.68
2022-08-17T03:18:31.478Z,4.82
2022-08-17T03:21:01.281Z,9.93
2022-08-17T03:23:30.353Z,5.03
2022-08-17T03:25:58.864Z,5.80
2022-08-17T03:28:28.130Z,5.05
2022-08-17T03:30:55.969Z,4.72
2022-08-17T03:33:23.829Z,5.22
2022-08-17T03:35:51.831Z,5.85
2022-08-17T03:38:21.710Z,5.40
2022-08-17T03:40:56.852Z,6.50
2022-08-17T03:43:29.290Z,7.68
2022-08-17T03:46:28.159Z,5.40
2022-08-17T03:49:12.736Z,7.70
2022-08-17T03:51:54.395Z,6.03
2022-08-17T03:54:33.217Z,8.98
2022-08-17T03:57:03.513Z,12.15
2022-08-17T03:59:31.366Z,5.00
2022-08-17T04:02:01.457Z,5.07
2022-08-17T04:04:29.122Z,7.03
2022-08-17T04:06:57.016Z,5.88
2022-08-17T04:09:25.986Z,5.18
2022-08-17T04:11:54.433Z,6.30
2022-08-17T04:14:25.043Z,9.55
2022-08-17T04:16:52.766Z,6.70
2022-08-17T04:19:20.550Z,4.97
2022-08-17T04:21:48.290Z,5.95
2022-08-17T04:24:15.899Z,4.63
2022-08-17T04:26:53.403Z,5.43
2022-08-17T04:29:22.481Z,5.65
2022-08-17T04:31:50.458Z,7.22
2022-08-17T04:34:19.858Z,9.90
2022-08-17T04:36:50.323Z,5.75
2022-08-17T04:39:18.330Z,6.35
2022-08-17T04:42:01.193Z,5.22
2022-08-17T04:44:37.670Z,7.22
2022-08-17T04:47:07.082Z,7.57
2022-08-17T04:49:38.466Z,10.13
2022-08-17T04:52:06.220Z,4.70
2022-08-17T04:54:34.430Z,4.20
2022-08-17T04:57:04.336Z,12.05
2022-08-17T04:59:31.997Z,6.95
2022-08-17T05:01:59.654Z,4.90
2022-08-17T05:04:33.825Z,4.90
2022-08-17T05:07:03.144Z,4.50
2022-08-17T05:09:31.533Z,4.28
2022-08-17T05:12:01.230Z,7.18
2022-08-17T05:14:33.304Z,4.93
2022-08-17T05:17:01.733Z,5.97
2022-08-17T05:19:34.819Z,4.32
2022-08-17T05:22:05.827Z,5.70
2022-08-17T05:24:39.837Z,7.25
2022-08-17T05:27:14.361Z,11.85
2022-08-17T05:29:48.152Z,7.47
2022-08-17T05:32:38.034Z,8.85
2022-08-17T05:35:03.896Z,5.90
2022-08-17T05:37:31.702Z,5.88
2022-08-17T05:39:59.414Z,5.75
2022-08-17T05:42:27.121Z,4.68
2022-08-17T05:44:59.052Z,6.30
2022-08-17T05:47:27.218Z,5.07
2022-08-17T05:49:55.481Z,8.80
2022-08-17T05:52:27.302Z,8.35
2022-08-17T05:55:02.623Z,9.45
2022-08-17T05:57:36.907Z,7.47
2022-08-17T06:00:16.932Z,6.82
2022-08-17T06:02:54.703Z,10.77
2022-08-17T06:05:29.839Z,10.77
2022-08-17T06:08:07.379Z,10.48
2022-08-17T06:10:41.874Z,7.85
2022-08-17T06:13:12.526Z,7.15
2022-08-17T06:15:45.795Z,8.90
2022-08-17T06:18:17.273Z,5.82
2022-08-17T06:20:48.211Z,7.07
2022-08-17T06:23:21.574Z,6.82
2022-08-17T06:25:52.470Z,5.75
2022-08-17T06:28:24.302Z,11.70
2022-08-17T06:30:59.922Z,4.88
2022-08-17T06:33:34.128Z,10.90
2022-08-17T06:36:09.314Z,5.13
2022-08-17T06:38:43.557Z,10.82
2022-08-17T06:41:16.517Z,7.07
2022-08-17T06:43:49.183Z,11.98
2022-08-17T06:46:22.571Z,9.55
2022-08-17T06:48:53.800Z,4.88
2022-08-17T06:51:23.711Z,7.22
2022-08-17T06:53:54.076Z,5.60
2022-08-17T06:56:24.699Z,4.32
2022-08-17T06:59:17.442Z,6.00
2022-08-17T07:01:47.838Z,7.65
2022-08-17T07:04:18.180Z,6.45
2022-08-17T07:06:48.495Z,5.40
2022-08-17T07:09:19.570Z,6.45
2022-08-17T07:11:50.954Z,7.75
2022-08-17T07:14:32.153Z,10.80
2022-08-17T07:17:02.924Z,5.85
2022-08-17T07:19:32.486Z,4.28
2022-08-17T07:22:04.948Z,4.13
2022-08-17T07:24:35.591Z,10.05
2022-08-17T07:27:06.256Z,14.55
2022-08-17T07:29:37.575Z,8.57
2022-08-17T07:32:07.251Z,5.50
2022-08-17T07:34:59.009Z,4.43
2022-08-17T07:37:26.898Z,5.95
2022-08-17T07:40:15.487Z,6.82
2022-08-17T07:42:55.173Z,7.72
2022-08-17T07:45:36.770Z,6.75
2022-08-17T07:48:16.186Z,4.65
2022-08-17T07:50:49.720Z,5.18
2022-08-17T07:53:19.216Z,5.97
2022-08-17T07:55:47.068Z,6.13
2022-08-17T07:58:17.779Z,7.53
2022-08-17T08:00:45.672Z,6.15
2022-08-17T08:03:19.214Z,6.43
2022-08-17T08:05:50.960Z,5.28
2022-08-17T08:08:23.484Z,9.88
2022-08-17T08:10:58.950Z,8.00
2022-08-17T08:13:28.710Z,4.47
2022-08-17T08:15:57.793Z,8.15
2022-08-17T08:18:54.032Z,5.78
2022-08-17T08:21:19.517Z,10.10
2022-08-17T08:23:51.314Z,6.78
2022-08-17T08:26:25.199Z,8.35
2022-08-17T08:28:59.043Z,7.47
2022-08-17T08:31:31.439Z,6.00
2022-08-17T08:34:07.226Z,7.05
2022-08-17T08:37:16.328Z,7.13
2022-08-17T08:39:52.637Z,7.18
2022-08-17T08:42:25.176Z,8.35
2022-08-17T08:45:00.011Z,12.30
2022-08-17T08:47:38.637Z,8.73
2022-08-17T08:50:37.185Z,6.10
2022-08-17T08:53:09.271Z,7.30
2022-08-17T08:55:43.145Z,9.93
2022-08-17T08:58:31.635Z,6.95
2022-08-17T09:01:04.207Z,9.38
2022-08-17T09:03:52.847Z,7.50
2022-08-17T09:06:35.617Z,7.25
2022-08-17T09:09:12.189Z,6.68
2022-08-17T09:12:02.220Z,7.82
2022-08-17T09:14:45.133Z,9.48
2022-08-17T09:17:16.551Z,7.57
2022-08-17T09:19:49.238Z,6.85
2022-08-17T09:22:23.655Z,17.40
2022-08-17T09:24:56.977Z,6.38
2022-08-17T09:27:28.047Z,11.18
2022-08-17T09:29:58.190Z,6.47
2022-08-17T09:32:29.382Z,6.72
2022-08-17T09:35:00.125Z,6.00
2022-08-17T09:37:33.385Z,6.13
2022-08-17T09:40:09.547Z,8.30
2022-08-17T09:42:41.866Z,9.00
2022-08-17T09:45:17.016Z,7.40
2022-08-17T09:47:49.209Z,5.53
2022-08-17T09:51:03.462Z,7.18
2022-08-17T09:53:10.900Z,6.20
2022-08-17T09:55:44.896Z,6.90
2022-08-17T09:58:16.943Z,7.75
2022-08-17T10:00:48.315Z,9.98
2022-08-17T10:03:22.327Z,10.60
2022-08-17T10:05:56.468Z,12.27
2022-08-17T10:08:32.060Z,8.65
2022-08-17T10:11:06.813Z,5.55
2022-08-17T10:13:36.702Z,7.60
2022-08-17T10:16:08.742Z,10.25
2022-08-17T10:18:40.187Z,8.93
2022-08-17T10:21:19.342Z,8.10
2022-08-17T10:24:01.219Z,6.38
2022-08-17T10:26:55.716Z,11.10
2022-08-17T10:29:22.879Z,6.45
2022-08-17T10:31:53.138Z,5.47
2022-08-17T10:34:29.616Z,8.93
2022-08-17T10:37:10.083Z,6.35
2022-08-17T10:39:52.482Z,6.50
2022-08-17T10:42:30.483Z,5.38
2022-08-17T10:45:02.904Z,7.78
2022-08-17T10:47:55.197Z,7.70
2022-08-17T10:50:38.648Z,5.35
2022-08-17T10:53:06.477Z,7.28
2022-08-17T10:55:35.447Z,7.70
2022-08-17T10:58:20.959Z,6.35
2022-08-17T11:00:57.892Z,4.97
2022-08-17T11:03:43.807Z,8.70
2022-08-17T11:06:18.370Z,4.35
2022-08-17T11:08:57.478Z,6.97
2022-08-17T11:11:35.763Z,7.60
2022-08-17T11:14:16.861Z,5.22
2022-08-17T11:16:50.192Z,5.30
2022-08-17T11:19:28.063Z,5.57
2022-08-17T11:22:02.705Z,4.90
2022-08-17T11:24:34.427Z,2.75
2022-08-17T11:27:05.933Z,4.65
2022-08-17T11:29:37.045Z,5.90
2022-08-17T11:32:07.690Z,5.65
2022-08-17T11:34:39.490Z,6.03
2022-08-17T11:37:16.264Z,6.78
2022-08-17T11:39:56.926Z,4.78
2022-08-17T11:42:34.252Z,4.40
2022-08-17T11:45:04.677Z,4.72
2022-08-17T11:48:15.994Z,5.03
2022-08-17T11:50:58.814Z,5.93
2022-08-17T11:53:37.212Z,6.80
2022-08-17T11:56:06.321Z,4.05
2022-08-17T11:58:37.863Z,3.90
2022-08-17T12:01:06.019Z,6.85
2022-08-17T12:03:43.722Z,5.40
2022-08-17T12:06:35.328Z,4.85
2022-08-17T12:09:08.107Z,6.38
2022-08-17T12:11:58.789Z,7.65
2022-08-17T12:15:05.644Z,6.28
2022-08-17T12:17:39.279Z,4.30
2022-08-17T12:20:11.843Z,6.63
2022-08-17T12:22:43.923Z,3.60
2022-08-17T12:25:14.097Z,4.75
2022-08-17T12:28:06.852Z,8.27
2022-08-17T12:30:35.210Z,7.05
2022-08-17T12:33:03.205Z,5.07
2022-08-17T12:35:32.963Z,6.43
2022-08-17T12:38:01.539Z,5.03
2022-08-17T12:40:31.395Z,5.60
2022-08-17T12:43:00.658Z,9.18
2022-08-17T12:45:30.302Z,5.95
2022-08-17T12:48:06.446Z,4.10
2022-08-17T12:50:34.638Z,4.25
2022-08-17T12:53:02.872Z,9.65
2022-08-17T12:55:36.917Z,4.20
2022-08-17T12:58:04.939Z,11.18
2022-08-17T13:00:34.015Z,4.78
2022-08-17T13:03:05.857Z,5.65
2022-08-17T13:05:35.962Z,4.07
2022-08-17T13:08:06.025Z,5.22
2022-08-17T13:10:35.140Z,4.45
2022-08-17T13:13:05.786Z,7.28
2022-08-17T13:15:36.895Z,4.28
2022-08-17T13:18:08.397Z,4.57
2022-08-17T13:20:36.781Z,5.85
2022-08-17T13:23:12.036Z,4.32
2022-08-17T13:25:40.453Z,3.70
2022-08-17T13:28:17.837Z,5.07
2022-08-17T13:31:12.452Z,4.93
2022-08-17T13:33:44.815Z,6.93
2022-08-17T13:36:13.027Z,4.47
2022-08-17T13:38:51.051Z,4.22
2022-08-17T13:41:30.603Z,5.22
2022-08-17T13:43:58.530Z,4.05
2022-08-17T13:46:30.462Z,4.43
2022-08-17T13:49:01.264Z,7.82
2022-08-17T13:51:30.673Z,9.52
2022-08-17T13:54:02.083Z,5.85
2022-08-17T13:56:39.103Z,4.93
2022-08-17T13:59:09.352Z,6.80
2022-08-17T14:01:39.377Z,4.18
2022-08-17T14:04:09.878Z,5.22
2022-08-17T14:06:52.794Z,5.40
2022-08-17T14:09:22.575Z,5.70
2022-08-17T14:11:50.975Z,5.50
2022-08-17T14:14:19.036Z,3.42
2022-08-17T14:16:46.783Z,5.45
2022-08-17T14:19:16.336Z,6.05
2022-08-17T14:21:45.185Z,4.38
2022-08-17T14:24:17.606Z,5.15
2022-08-17T14:26:45.566Z,5.18
2022-08-17T14:29:15.498Z,7.50
2022-08-17T14:31:49.663Z,5.68
2022-08-17T14:34:23.920Z,5.90
2022-08-17T14:36:51.892Z,5.68
2022-08-17T14:39:20.351Z,10.65
2022-08-17T14:41:48.474Z,5.50
2022-08-17T14:44:16.505Z,5.55
2022-08-17T14:46:45.168Z,7.82
2022-08-17T14:49:14.499Z,4.30
2022-08-17T14:51:43.986Z,6.05
2022-08-17T14:54:33.041Z,5.07
2022-08-17T14:57:22.205Z,4.55
2022-08-17T14:59:48.833Z,5.50
2022-08-17T15:02:19.760Z,7.55
2022-08-17T15:04:47.826Z,5.57
2022-08-17T15:07:16.814Z,5.28
2022-08-17T15:09:45.313Z,7.97
2022-08-17T15:12:16.741Z,7.35
2022-08-17T15:14:44.510Z,5.75
2022-08-17T15:17:12.482Z,7.20
2022-08-17T15:19:40.550Z,6.20
2022-08-17T15:22:17.002Z,8.38
2022-08-17T15:24:45.960Z,6.75
2022-08-17T15:27:13.811Z,6.38
2022-08-17T15:29:51.792Z,5.57
2022-08-17T15:32:27.692Z,7.90
2022-08-17T15:34:56.742Z,5.20
2022-08-17T15:37:24.515Z,8.70
2022-08-17T15:39:53.872Z,13.45
2022-08-17T15:42:22.182Z,96.22
2022-08-17T15:44:50.122Z,86.63
2022-08-17T15:47:18.057Z,41.17
2022-08-17T15:49:46.318Z,37.65
2022-08-17T15:52:18.347Z,10.50
2022-08-17T15:54:50.090Z,6.82
2022-08-17T15:57:19.607Z,18.80
2022-08-17T15:59:50.755Z,8.50
2022-08-17T16:03:32.004Z,8.98
2022-08-17T16:05:15.528Z,8.60
2022-08-17T16:07:46.661Z,11.77
2022-08-17T16:10:19.031Z,7.80
2022-08-17T16:12:49.888Z,7.70
2022-08-17T16:15:19.047Z,16.40
2022-08-17T16:17:46.736Z,11.65
2022-08-17T16:20:19.895Z,8.07
2022-08-17T16:22:49.298Z,6.25
2022-08-17T16:25:18.835Z,4.65
2022-08-17T16:27:49.430Z,9.02
2022-08-17T16:30:18.245Z,5.63
2022-08-17T16:32:46.493Z,6.68
2022-08-17T16:35:17.177Z,8.07
2022-08-17T16:37:45.640Z,6.65
2022-08-17T16:40:14.571Z,8.57
2022-08-17T16:42:42.750Z,4.03
2022-08-17T16:45:16.831Z,6.60
2022-08-17T16:47:44.682Z,11.02
2022-08-17T16:50:13.370Z,4.25
2022-08-17T16:52:41.495Z,4.00
2022-08-17T16:55:13.156Z,4.90
2022-08-17T16:57:47.476Z,5.32
2022-08-17T17:00:20.847Z,8.07
2022-08-17T17:02:49.713Z,4.55
2022-08-17T17:05:24.304Z,8.82
2022-08-17T17:07:56.660Z,4.72
2022-08-17T17:10:25.341Z,8.85
2022-08-17T17:13:01.886Z,2.35
2022-08-17T17:15:55.037Z,6.65
2022-08-17T17:18:27.467Z,8.05
2022-08-17T17:20:56.428Z,4.07
2022-08-17T17:23:29.011Z,3.22
2022-08-17T17:25:59.442Z,5.00
2022-08-17T17:28:30.864Z,2.80
2022-08-17T17:31:02.328Z,5.57
2022-08-17T17:33:34.694Z,3.95
2022-08-17T17:36:07.656Z,4.88
2022-08-17T17:38:39.231Z,4.78
2022-08-17T17:41:28.942Z,6.13
2022-08-17T17:44:01.916Z,3.80
2022-08-17T17:46:33.784Z,4.60
2022-08-17T17:49:01.617Z,4.15
2022-08-17T17:52:02.839Z,3.35
2022-08-17T17:54:29.325Z,5.15
2022-08-17T17:56:59.526Z,4.18
2022-08-17T17:59:28.694Z,4.28
2022-08-17T18:02:02.464Z,4.90
2022-08-17T18:04:32.610Z,7.63
2022-08-17T18:07:09.997Z,5.35
2022-08-17T18:09:51.792Z,4.93
2022-08-17T18:12:26.842Z,4.53
2022-08-17T18:15:00.714Z,6.07
2022-08-17T18:17:30.987Z,8.98
2022-08-17T18:19:58.657Z,5.78
2022-08-17T18:22:27.693Z,5.93
2022-08-17T18:24:57.227Z,8.70
2022-08-17T18:27:27.262Z,6.35
2022-08-17T18:29:55.719Z,6.95
2022-08-17T18:32:25.963Z,5.93
2022-08-17T18:34:56.521Z,5.97
2022-08-17T18:37:30.819Z,6.20
2022-08-17T18:39:58.669Z,7.03
2022-08-17T18:42:28.784Z,10.77
2022-08-17T18:44:56.529Z,7.88
2022-08-17T18:47:25.409Z,7.13
2022-08-17T18:49:57.293Z,9.73
2022-08-17T18:52:27.622Z,5.10
2022-08-17T18:55:04.915Z,4.72
2022-08-17T18:57:34.726Z,4.88
2022-08-17T19:00:02.937Z,5.82
2022-08-17T19:02:44.111Z,7.40
2022-08-17T19:05:25.845Z,5.72
2022-08-17T19:07:56.059Z,5.13
2022-08-17T19:10:25.147Z,6.57
2022-08-17T19:12:55.039Z,6.43
2022-08-17T19:15:31.046Z,5.35
2022-08-17T19:18:00.445Z,7.43
2022-08-17T19:20:31.478Z,4.70
2022-08-17T19:23:04.517Z,5.47
2022-08-17T19:25:34.205Z,5.63
2022-08-17T19:28:21.550Z,5.38
2022-08-17T19:30:50.635Z,6.30
2022-08-17T19:33:19.301Z,8.50
2022-08-17T19:35:50.615Z,7.35
2022-08-17T19:38:37.086Z,7.00
2022-08-17T19:41:12.326Z,4.55
2022-08-17T19:43:50.442Z,4.22
2022-08-17T19:46:25.959Z,4.85
2022-08-17T19:48:57.785Z,5.38
2022-08-17T19:51:29.078Z,6.55
2022-08-17T19:54:05.786Z,6.35
2022-08-17T19:56:41.854Z,7.72
2022-08-17T19:59:12.732Z,3.35
2022-08-17T20:01:44.787Z,5.22
2022-08-17T20:04:32.479Z,4.35
2022-08-17T20:07:03.337Z,7.15
2022-08-17T20:09:34.463Z,4.43
2022-08-17T20:12:05.476Z,5.78
2022-08-17T20:14:35.642Z,6.57
2022-08-17T20:17:03.451Z,5.55
2022-08-17T20:19:36.494Z,6.65
2022-08-17T20:22:10.545Z,3.45
2022-08-17T20:24:44.595Z,4.93
2022-08-17T20:27:16.262Z,6.57
2022-08-17T20:29:55.221Z,4.90
2022-08-17T20:32:26.381Z,4.65
2022-08-17T20:35:04.304Z,2.25
2022-08-17T20:37:33.827Z,5.03
2022-08-17T20:40:14.346Z,2.30
2022-08-17T20:42:43.369Z,2.40
2022-08-17T20:45:26.123Z,2.33
2022-08-17T20:48:22.115Z,3.40
2022-08-17T20:50:45.644Z,2.75
2022-08-17T20:53:33.228Z,4.05
2022-08-17T20:56:00.942Z,2.92
2022-08-17T20:58:39.466Z,1.80
2022-08-17T21:01:13.117Z,2.85
2022-08-17T21:03:50.302Z,1.63
2022-08-17T21:06:20.843Z,4.70
2022-08-17T21:08:53.289Z,2.20
2022-08-17T21:12:02.910Z,2.20
2022-08-17T21:14:31.001Z,3.67
2022-08-17T21:17:06.709Z,4.65
2022-08-17T21:20:00.485Z,6.38
2022-08-17T21:22:34.778Z,2.40
2022-08-17T21:25:08.815Z,1.70
2022-08-17T21:27:41.058Z,4.60
2022-08-17T21:30:14.404Z,1.88
2022-08-17T21:32:45.833Z,1.52
2022-08-17T21:35:23.138Z,1.70
2022-08-17T21:37:53.180Z,1.75
2022-08-17T21:40:24.618Z,2.58
2022-08-17T21:42:55.545Z,3.28
2022-08-17T21:45:25.935Z,3.47
2022-08-17T21:48:08.324Z,2.15
2022-08-17T21:50:36.445Z,1.98
2022-08-17T21:53:05.039Z,2.47
2022-08-17T21:55:34.264Z,2.15
2022-08-17T21:58:13.907Z,1.85
2022-08-17T22:00:44.177Z,2.00
2022-08-17T22:03:25.819Z,1.75
2022-08-17T22:05:53.540Z,2.08
2022-08-17T22:08:22.485Z,2.00
2022-08-17T22:10:51.469Z,1.55
2022-08-17T22:13:21.347Z,3.53
2022-08-17T22:15:49.738Z,2.17
2022-08-17T22:18:20.801Z,1.27
2022-08-17T22:20:52.563Z,1.63
2022-08-17T22:23:35.624Z,2.10
2022-08-17T22:26:05.452Z,1.45
2022-08-17T22:28:38.233Z,2.00
2022-08-17T22:31:06.945Z,1.88
2022-08-17T22:33:39.859Z,2.13
2022-08-17T22:36:09.523Z,4.80
2022-08-17T22:38:38.696Z,1.95
2022-08-17T22:41:18.812Z,1.80
2022-08-17T22:43:46.781Z,2.13
2022-08-17T22:46:14.847Z,3.03
2022-08-17T22:48:50.069Z,2.05
2022-08-17T22:51:20.072Z,1.92
2022-08-17T22:53:59.238Z,5.88
2022-08-17T22:56:37.711Z,1.63
2022-08-17T22:59:14.763Z,2.03
2022-08-17T23:01:43.443Z,2.17
2022-08-17T23:04:15.924Z,2.20
2022-08-17T23:06:43.613Z,1.75
2022-08-17T23:09:11.324Z,1.73
2022-08-17T23:11:48.703Z,2.92
2022-08-17T23:14:18.990Z,2.38
2022-08-17T23:16:46.720Z,3.25
2022-08-17T23:19:16.646Z,4.03
2022-08-17T23:21:45.832Z,1.98
2022-08-17T23:24:15.207Z,2.85
2022-08-17T23:26:42.956Z,3.00
2022-08-17T23:29:10.629Z,5.13
2022-08-17T23:31:39.587Z,3.38
2022-08-17T23:34:09.787Z,2.83
2022-08-17T23:36:38.889Z,2.85
2022-08-17T23:39:06.541Z,3.30
2022-08-17T23:41:39.851Z,2.63
2022-08-17T23:44:07.896Z,3.47
2022-08-17T23:46:35.644Z,2.38
2022-08-17T23:49:03.395Z,2.97
2022-08-17T23:51:33.974Z,5.10
2022-08-17T23:54:08.309Z,4.93
2022-08-17T23:56:39.226Z,2.33
2022-08-17T23:59:06.872Z,1.92
